首页
METAR-TAF:

METAR-TAF

机场 :

Macon County Airport

富兰克林, 北卡罗来纳州, 美国

纬度: 35-13N, 经度: 083-25W, 海拔: 616米

当前天气观测

该预报发布于55分钟前的11:55 UTC
静风
温度 -1°C
湿度 100%
气压 1021 hPa
能見度: 4.0公里
阴天层高于300英尺
轻雾

METAR: K1A5 171155Z AUTO 00000KT 2 1/2SM BR OVC003 M01/M01 A3016 RMK AO2 T10101015 11002 21018

时间: 07:50 (12:50 UTC)


TAF: 丢失

超过4000个机场的气象观测和天气预报(METAR&TAF报告)。

可查询的气象台以黄色和红色小点在地图上表示。

将鼠标移到小点上方,可查看气象台名称。

然后点击查看天气观测和预报。

如需切换地图:点击带黑十字的绿色按钮放大地图;点击带横线的绿色按钮缩小地图;或者点击绿色箭头查看邻近地区的地图。


METAR-TAF: